Time;durP1;ratioP1;P1;durP2;ratioP2;P2;SDS_P1;SDS_P2;PMS_P1;PMS_P2;Temp;Humidity;BMP_temperature;BMP_pressure;BME280_temperature;BME280_humidity;BME280_pressure;Samples;Min_cycle;Max_cycle;Signal;HPM_P1;HPM_P2
2024/01/01 00:02:12;;;;;;;0.50;0.50;;;;;;;5.30;92.36;97054.41;5021987;28;20054;-66
2024/01/01 00:04:39;;;;;;;0.50;0.50;;;;;;;5.50;93.38;97073.59;5006699;28;20073;-67
2024/01/01 00:07:06;;;;;;;0.60;0.60;;;;;;;5.71;93.34;97095.56;5006904;28;20068;-67
2024/01/01 00:09:32;;;;;;;0.60;0.60;;;;;;;5.35;93.42;97032.22;5007250;28;20058;-67
2024/01/01 00:11:59;;;;;;;0.52;0.52;;;;;;;5.72;93.33;97080.69;5006757;28;20054;-67
2024/01/01 00:14:26;;;;;;;0.55;0.55;;;;;;;5.87;93.82;97088.31;5007104;28;20061;-67
2024/01/01 00:16:52;;;;;;;0.50;0.50;;;;;;;5.31;93.52;96993.66;5006435;28;20060;-66
2024/01/01 00:19:19;;;;;;;0.50;0.50;;;;;;;5.95;93.25;97090.19;5006297;28;20053;-67
2024/01/01 00:21:46;;;;;;;0.50;0.50;;;;;;;5.70;93.32;97036.25;5006417;28;20133;-67
2024/01/01 00:24:13;;;;;;;0.50;0.50;;;;;;;5.69;92.72;97026.41;5005510;28;20054;-67
2024/01/01 00:26:39;;;;;;;0.50;0.50;;;;;;;6.08;92.74;97089.88;5006600;28;20046;-67
2024/01/01 00:29:09;;;;;;;0.50;0.50;;;;;;;5.94;92.80;97072.88;5021692;28;20042;-67
2024/01/01 00:31:45;;;;;;;0.50;0.50;;;;;;;5.38;93.13;96982.13;5006356;28;20057;-67
2024/01/01 00:34:11;;;;;;;0.50;0.50;;;;;;;5.97;92.94;97071.41;5006586;28;20084;-67
2024/01/01 00:36:38;;;;;;;0.60;0.60;;;;;;;6.09;91.89;97104.41;5006431;28;20049;-68
2024/01/01 00:39:05;;;;;;;0.50;0.50;;;;;;;5.88;92.77;97095.44;5006208;28;20547;-67
2024/01/01 00:41:32;;;;;;;0.50;0.50;;;;;;;5.97;93.41;97109.91;5021348;28;20347;-67
2024/01/01 00:43:58;;;;;;;0.50;0.50;;;;;;;5.99;93.16;97102.13;5006076;28;20513;-67
2024/01/01 00:46:25;;;;;;;0.50;0.50;;;;;;;6.03;93.65;97105.78;5006130;28;20054;-67
2024/01/01 00:48:52;;;;;;;0.50;0.50;;;;;;;3.68;93.73;96729.38;5006172;28;20057;-67
2024/01/01 00:51:19;;;;;;;0.50;0.50;;;;;;;6.00;94.34;97103.72;5020822;28;20058;-67
2024/01/01 00:53:46;;;;;;;0.60;0.60;;;;;;;5.93;93.47;97065.78;5006049;28;20089;-68
2024/01/01 00:56:13;;;;;;;0.50;0.50;;;;;;;6.03;93.45;97064.53;5005654;28;20295;-66
2024/01/01 00:58:40;;;;;;;0.50;0.50;;;;;;;5.86;93.20;97045.50;5006472;28;20061;-67
2024/01/01 01:01:09;;;;;;;0.50;0.50;;;;;;;6.14;93.14;97076.72;5004400;28;20049;-67
2024/01/01 01:03:36;;;;;;;0.57;0.57;;;;;;;6.16;93.74;97074.44;5006149;28;20081;-67
2024/01/01 01:06:05;;;;;;;0.50;0.50;;;;;;;6.11;93.43;97074.66;5005837;28;20046;-67
2024/01/01 01:08:43;;;;;;;0.50;0.50;;;;;;;5.62;93.65;97004.16;5005769;28;20053;-67
2024/01/01 01:11:10;;;;;;;0.50;0.50;;;;;;;6.01;93.28;97075.06;5020425;28;20101;-67
2024/01/01 01:13:37;;;;;;;0.50;0.50;;;;;;;5.90;92.77;97082.13;5005721;28;20076;-67
2024/01/01 01:16:04;;;;;;;0.50;0.50;;;;;;;5.87;90.87;97074.56;4989652;28;20140;-67
2024/01/01 01:18:31;;;;;;;0.50;0.50;;;;;;;5.70;91.18;97067.28;5005888;28;20073;-67
2024/01/01 01:20:58;;;;;;;0.50;0.50;;;;;;;4.69;91.34;96914.13;5020789;28;20049;-67
2024/01/01 01:23:25;;;;;;;0.50;0.50;;;;;;;5.69;91.42;97073.13;5005882;28;20068;-68
2024/01/01 01:25:51;;;;;;;0.50;0.50;;;;;;;5.54;91.76;97046.28;5005374;28;20050;-68
2024/01/01 01:28:24;;;;;;;0.50;0.50;;;;;;;5.56;92.60;97057.72;5005356;28;20564;-67
2024/01/01 01:30:51;;;;;;;0.50;0.50;;;;;;;5.53;92.46;97066.66;5003382;28;20050;-67
2024/01/01 01:33:18;;;;;;;0.50;0.50;;;;;;;4.84;92.65;97005.22;5005234;28;20058;-68
2024/01/01 01:35:45;;;;;;;0.50;0.50;;;;;;;5.16;94.46;97067.59;5004995;28;20624;-68
2024/01/01 01:38:11;;;;;;;0.40;0.40;;;;;;;4.87;95.20;97010.03;5005454;28;20060;-67
2024/01/01 01:40:38;;;;;;;0.50;0.50;;;;;;;5.15;95.25;97055.03;5005183;28;20056;-68
2024/01/01 01:43:22;;;;;;;0.40;0.40;;;;;;;5.29;95.37;97055.53;5005375;28;20049;-68
2024/01/01 01:45:50;;;;;;;0.50;0.50;;;;;;;5.37;95.16;97058.22;5005187;28;20523;-68
2024/01/01 01:48:18;;;;;;;0.50;0.50;;;;;;;5.40;94.47;97051.25;5004908;28;20060;-68
2024/01/01 01:50:46;;;;;;;0.50;0.50;;;;;;;5.45;94.19;97051.88;5004928;28;20072;-68
2024/01/01 01:53:14;;;;;;;0.50;0.50;;;;;;;5.46;93.81;97044.41;5005142;28;20060;-68
2024/01/01 01:55:45;;;;;;;0.50;0.50;;;;;;;5.54;94.38;97038.03;5013858;28;20053;-68
2024/01/01 01:58:12;;;;;;;0.50;0.50;;;;;;;5.47;94.05;97035.03;5005458;28;20325;-68
2024/01/01 02:00:39;;;;;;;0.50;0.50;;;;;;;5.00;94.98;96943.06;5020013;28;20053;-68
2024/01/01 02:03:08;;;;;;;0.50;0.50;;;;;;;5.55;96.45;97045.13;5004650;28;20144;-68
2024/01/01 02:05:35;;;;;;;0.50;0.50;;;;;;;5.39;96.63;97006.50;5003302;28;20439;-68
2024/01/01 02:08:02;;;;;;;0.50;0.50;;;;;;;5.25;96.45;96983.22;5005007;28;20576;-68
2024/01/01 02:10:29;;;;;;;0.60;0.60;;;;;;;5.58;96.76;97022.50;5004236;28;20564;-68
2024/01/01 02:12:56;;;;;;;0.50;0.50;;;;;;;5.49;97.52;97027.25;5004882;28;20062;-68
2024/01/01 02:15:23;;;;;;;0.50;0.50;;;;;;;4.55;98.54;96877.94;5004654;28;20041;-67
2024/01/01 02:17:50;;;;;;;0.50;0.50;;;;;;;4.69;98.74;96922.34;5004562;28;20065;-68
2024/01/01 02:20:17;;;;;;;0.50;0.50;;;;;;;4.86;100.00;96961.75;5003021;28;20053;-67
2024/01/01 02:22:45;;;;;;;0.50;0.50;;;;;;;5.45;100.00;97026.31;5019319;28;20054;-68
2024/01/01 02:25:12;;;;;;;0.50;0.50;;;;;;;5.50;98.96;97023.38;5004703;28;20054;-68
2024/01/01 02:27:39;;;;;;;0.50;0.50;;;;;;;5.43;98.72;97034.91;5004678;28;20486;-68
2024/01/01 02:30:10;;;;;;;0.50;0.50;;;;;;;5.44;98.05;97030.19;5004597;28;20107;-68
2024/01/01 02:32:38;;;;;;;0.50;0.50;;;;;;;5.46;98.35;97045.22;5004494;28;20053;-68
2024/01/01 02:35:08;;;;;;;0.50;0.50;;;;;;;5.47;98.31;97024.06;5004292;28;20532;-68
2024/01/01 02:37:35;;;;;;;0.50;0.50;;;;;;;5.49;97.90;97030.00;4995884;28;20054;-68
2024/01/01 02:40:03;;;;;;;0.50;0.50;;;;;;;5.50;96.38;97017.88;5005093;28;20132;-69
2024/01/01 02:42:29;;;;;;;0.50;0.50;;;;;;;5.35;96.72;97021.25;5008635;28;20050;-69
2024/01/01 02:44:56;;;;;;;0.50;0.50;;;;;;;5.30;96.05;97003.03;5023574;28;20057;-68
2024/01/01 02:47:23;;;;;;;0.50;0.50;;;;;;;5.19;95.84;97023.00;5008494;28;20042;-68
2024/01/01 02:49:50;;;;;;;0.50;0.50;;;;;;;5.09;96.26;97017.94;5008247;28;20116;-68
2024/01/01 02:52:16;;;;;;;0.47;0.47;;;;;;;5.08;96.89;97016.31;5007786;28;20053;-68
2024/01/01 02:54:43;;;;;;;0.50;0.50;;;;;;;4.48;96.65;96942.69;5007980;28;20077;-68
2024/01/01 02:57:12;;;;;;;0.50;0.50;;;;;;;4.90;97.03;97010.16;5008100;28;20054;-68
2024/01/01 02:59:40;;;;;;;0.50;0.50;;;;;;;4.97;97.11;97023.34;5023261;28;20501;-68
2024/01/01 03:02:09;;;;;;;0.40;0.40;;;;;;;4.94;97.23;97013.03;5008254;28;20528;-68
2024/01/01 03:04:36;;;;;;;0.50;0.50;;;;;;;4.87;97.41;97001.81;5007969;28;20143;-68
2024/01/01 03:07:04;;;;;;;0.40;0.40;;;;;;;4.43;97.77;96945.63;5002684;28;20057;-68
2024/01/01 03:09:31;;;;;;;0.40;0.40;;;;;;;4.89;98.27;97003.06;5023605;28;20054;-68
2024/01/01 03:11:57;;;;;;;0.50;0.50;;;;;;;4.89;98.41;97008.56;5006284;28;20087;-68
2024/01/01 03:14:24;;;;;;;0.40;0.40;;;;;;;4.90;99.10;97010.16;5008056;28;20054;-68
2024/01/01 03:16:51;;;;;;;0.47;0.47;;;;;;;4.79;99.55;97003.44;5007979;28;20061;-68
2024/01/01 03:19:18;;;;;;;0.40;0.40;;;;;;;4.33;99.60;96944.09;5023175;28;20085;-68
2024/01/01 03:21:44;;;;;;;0.40;0.40;;;;;;;4.85;98.35;97002.13;5007593;28;20521;-68
2024/01/01 03:24:11;;;;;;;0.50;0.50;;;;;;;4.87;97.35;97007.28;5007748;28;20046;-68
2024/01/01 03:26:38;;;;;;;0.40;0.40;;;;;;;4.82;96.58;97007.50;5007699;28;20050;-68
2024/01/01 03:29:05;;;;;;;0.50;0.50;;;;;;;4.67;97.18;97003.38;5007291;28;20060;-68
2024/01/01 03:31:31;;;;;;;0.40;0.40;;;;;;;4.01;97.68;96928.34;5007729;28;20064;-67
2024/01/01 03:33:58;;;;;;;0.40;0.40;;;;;;;4.42;98.51;97015.34;5022747;28;20045;-68
2024/01/01 03:36:25;;;;;;;0.40;0.40;;;;;;;4.00;98.76;96956.84;5007085;28;20072;-68
2024/01/01 03:38:52;;;;;;;0.40;0.40;;;;;;;4.37;99.44;96997.13;5007634;28;20046;-68
2024/01/01 03:41:19;;;;;;;0.50;0.50;;;;;;;3.78;99.00;96885.13;4999920;28;20063;-68
2024/01/01 03:43:45;;;;;;;0.40;0.40;;;;;;;4.35;98.76;96991.19;4987915;28;20058;-68
2024/01/01 03:46:12;;;;;;;0.40;0.40;;;;;;;4.36;99.60;96994.72;4987502;28;20058;-68
2024/01/01 03:48:39;;;;;;;0.40;0.40;;;;;;;4.26;100.00;96979.47;4988348;28;20058;-67
2024/01/01 03:51:06;;;;;;;0.40;0.40;;;;;;;4.38;100.00;96982.28;4986362;28;20054;-67
2024/01/01 03:53:32;;;;;;;0.40;0.40;;;;;;;4.46;100.00;96977.88;4986437;28;20055;-68
2024/01/01 03:55:59;;;;;;;0.40;0.40;;;;;;;4.29;100.00;96994.44;5015281;28;20046;-67
2024/01/01 03:58:26;;;;;;;0.40;0.40;;;;;;;2.88;100.00;96785.19;5007230;28;20089;-67
2024/01/01 04:00:53;;;;;;;0.40;0.40;;;;;;;3.90;100.00;96976.44;5002329;28;20070;-67
2024/01/01 04:03:19;;;;;;;0.40;0.40;;;;;;;4.01;100.00;96977.66;4987342;28;20521;-67
2024/01/01 04:05:46;;;;;;;0.40;0.40;;;;;;;4.11;100.00;96988.22;4987552;28;20493;-67
2024/01/01 04:08:13;;;;;;;0.40;0.40;;;;;;;4.03;100.00;96974.59;4987707;28;20050;-66
2024/01/01 04:10:40;;;;;;;0.32;0.32;;;;;;;3.73;100.00;96938.13;4987342;28;20061;-67
2024/01/01 04:13:07;;;;;;;0.40;0.40;;;;;;;3.92;100.00;96979.63;4987276;28;20054;-66
2024/01/01 04:15:33;;;;;;;0.40;0.40;;;;;;;3.94;100.00;96971.06;4986978;28;20449;-67
2024/01/01 04:18:00;;;;;;;0.40;0.40;;;;;;;3.89;100.00;96968.53;4987415;28;20464;-66
2024/01/01 04:20:27;;;;;;;0.40;0.40;;;;;;;3.95;100.00;96972.69;4986936;28;20149;-66
2024/01/01 04:22:54;;;;;;;0.40;0.40;;;;;;;3.96;100.00;96972.38;4986843;28;20063;-66
2024/01/01 04:25:20;;;;;;;0.40;0.40;;;;;;;3.96;100.00;96969.63;4987361;28;20136;-67
2024/01/01 04:27:47;;;;;;;0.43;0.43;;;;;;;3.95;100.00;96970.75;5001930;28;20050;-67
2024/01/01 04:30:14;;;;;;;0.40;0.40;;;;;;;3.91;100.00;96972.53;4987366;28;20054;-66
2024/01/01 04:32:41;;;;;;;0.40;0.40;;;;;;;2.26;100.00;96696.66;4987111;28;20058;-66
2024/01/01 04:35:08;;;;;;;0.40;0.40;;;;;;;3.69;100.00;96934.44;4986783;28;20552;-67
2024/01/01 04:37:35;;;;;;;0.40;0.40;;;;;;;3.68;100.00;96930.13;4986563;28;20054;-67
2024/01/01 04:40:02;;;;;;;0.40;0.40;;;;;;;3.99;100.00;96970.88;4985275;28;20050;-67
2024/01/01 04:42:29;;;;;;;0.40;0.40;;;;;;;3.94;100.00;96966.41;4986655;28;20076;-67
2024/01/01 04:44:56;;;;;;;0.40;0.40;;;;;;;3.82;100.00;96947.13;4986779;28;20121;-66
2024/01/01 04:47:23;;;;;;;0.40;0.40;;;;;;;3.95;100.00;96968.00;4986367;28;20054;-68
2024/01/01 04:49:50;;;;;;;0.40;0.40;;;;;;;3.97;100.00;96965.75;4986859;28;20302;-66
2024/01/01 04:52:17;;;;;;;0.40;0.40;;;;;;;3.51;99.43;96886.34;4986608;28;20054;-66
2024/01/01 04:54:44;;;;;;;0.40;0.40;;;;;;;3.89;99.79;96968.53;4988151;28;20610;-67
2024/01/01 04:57:11;;;;;;;0.40;0.40;;;;;;;3.82;100.00;96963.56;5005435;28;20049;-67
2024/01/01 04:59:38;;;;;;;0.40;0.40;;;;;;;3.84;100.00;96969.50;5020848;28;20069;-67
2024/01/01 05:02:05;;;;;;;0.30;0.30;;;;;;;3.91;99.78;96972.53;5005857;28;20081;-67
2024/01/01 05:04:32;;;;;;;0.35;0.35;;;;;;;3.84;97.95;96974.97;5005531;28;20054;-67
2024/01/01 05:06:59;;;;;;;0.40;0.40;;;;;;;3.77;97.68;96977.44;5005580;28;20060;-67
2024/01/01 05:09:26;;;;;;;0.30;0.30;;;;;;;3.67;98.02;96972.31;5006180;28;20513;-68
2024/01/01 05:11:53;;;;;;;0.40;0.40;;;;;;;3.40;98.80;96945.34;5005723;28;20057;-67
2024/01/01 05:14:20;;;;;;;0.40;0.40;;;;;;;3.64;99.20;96962.00;5005486;28;20046;-67
2024/01/01 05:16:47;;;;;;;0.40;0.40;;;;;;;3.58;100.00;96960.59;5005021;28;20128;-67
2024/01/01 05:19:15;;;;;;;0.40;0.40;;;;;;;3.58;100.00;96960.59;5004152;28;20120;-66
2024/01/01 05:21:42;;;;;;;0.38;0.38;;;;;;;3.57;100.00;96961.72;5005376;28;20054;-66
2024/01/01 05:24:09;;;;;;;0.40;0.40;;;;;;;3.16;100.00;96923.22;5020323;28;20554;-67
2024/01/01 05:26:36;;;;;;;0.40;0.40;;;;;;;3.43;100.00;96965.81;5004807;28;20508;-66
2024/01/01 05:29:03;;;;;;;0.40;0.40;;;;;;;2.67;100.00;96844.47;5005639;28;20045;-66
2024/01/01 05:31:30;;;;;;;0.40;0.40;;;;;;;3.41;100.00;96968.06;5020300;28;20046;-66
2024/01/01 05:33:57;;;;;;;0.30;0.30;;;;;;;3.42;100.00;96954.03;5005548;28;20057;-66
2024/01/01 05:36:24;;;;;;;0.40;0.40;;;;;;;2.98;100.00;96883.31;5004844;28;20052;-67
2024/01/01 05:38:51;;;;;;;0.40;0.40;;;;;;;3.25;100.00;96918.50;5005400;28;20131;-66
2024/01/01 05:41:18;;;;;;;0.40;0.40;;;;;;;2.70;100.00;96854.75;5005090;28;20053;-67
2024/01/01 05:43:45;;;;;;;0.40;0.40;;;;;;;3.41;100.00;96949.69;5005163;28;20046;-67
2024/01/01 05:46:12;;;;;;;0.40;0.40;;;;;;;3.40;100.00;96955.50;5005317;28;20049;-67
2024/01/01 05:48:39;;;;;;;0.32;0.32;;;;;;;3.44;100.00;96954.53;5020532;28;20053;-67
2024/01/01 05:51:09;;;;;;;0.40;0.40;;;;;;;3.37;100.00;96956.94;5004625;28;20054;-66
2024/01/01 05:53:36;;;;;;;0.40;0.40;;;;;;;2.60;100.00;96844.16;5019890;28;20116;-67
2024/01/01 05:56:04;;;;;;;0.40;0.40;;;;;;;3.35;99.89;96953.72;5004476;28;20089;-66
2024/01/01 05:58:31;;;;;;;0.40;0.40;;;;;;;3.38;100.00;96958.56;5019673;28;20140;-66
2024/01/01 06:00:58;;;;;;;0.40;0.40;;;;;;;2.80;100.00;96866.16;5003420;28;20513;-67
2024/01/01 06:03:26;;;;;;;0.30;0.30;;;;;;;3.35;100.00;96953.72;5002016;28;20060;-66
2024/01/01 06:05:54;;;;;;;0.40;0.40;;;;;;;2.70;100.00;96866.47;5003662;28;20456;-66
2024/01/01 06:08:22;;;;;;;0.40;0.40;;;;;;;3.25;98.99;96954.09;5004240;28;20054;-66
2024/01/01 06:10:49;;;;;;;0.40;0.40;;;;;;;3.18;98.92;96952.97;5002397;28;20536;-66
2024/01/01 06:13:16;;;;;;;0.40;0.40;;;;;;;3.20;98.96;96957.00;5003934;28;20512;-66
2024/01/01 06:15:44;;;;;;;0.30;0.30;;;;;;;3.23;98.83;96956.34;5006038;28;20170;-66
2024/01/01 06:18:11;;;;;;;0.40;0.40;;;;;;;3.34;99.12;96963.06;5007414;28;20046;-66
2024/01/01 06:20:39;;;;;;;0.40;0.40;;;;;;;3.38;98.36;96958.56;5004722;28;20077;-66
2024/01/01 06:23:06;;;;;;;0.40;0.40;;;;;;;3.28;98.61;96928.00;5004748;28;20505;-68
2024/01/01 06:25:33;;;;;;;0.40;0.40;;;;;;;3.42;99.19;96937.59;5004555;28;20437;-67
2024/01/01 06:28:00;;;;;;;0.40;0.40;;;;;;;3.17;99.71;96891.97;5005010;28;20058;-66
2024/01/01 06:30:27;;;;;;;0.40;0.40;;;;;;;3.39;99.00;96916.38;5004538;28;20108;-66
2024/01/01 06:32:54;;;;;;;0.40;0.40;;;;;;;3.22;98.43;96856.22;5004620;28;20519;-66
2024/01/01 06:35:21;;;;;;;0.32;0.32;;;;;;;3.81;98.35;96956.47;5004391;28;20084;-67
2024/01/01 06:37:50;;;;;;;0.40;0.40;;;;;;;3.86;98.41;96961.75;5003914;28;20054;-67
2024/01/01 06:40:17;;;;;;;0.40;0.40;;;;;;;3.94;98.82;96955.44;5004198;28;20139;-67
2024/01/01 06:42:44;;;;;;;0.40;0.40;;;;;;;4.12;97.97;96967.94;5004332;28;20100;-67
2024/01/01 06:45:10;;;;;;;0.40;0.40;;;;;;;3.71;97.18;96890.31;5002622;28;20120;-67
2024/01/01 06:47:38;;;;;;;0.40;0.40;;;;;;;4.00;96.12;96967.03;4989278;28;20922;-67
2024/01/01 06:50:08;;;;;;;0.40;0.40;;;;;;;4.03;97.08;96964.41;4984290;28;20113;-67
2024/01/01 06:52:35;;;;;;;0.40;0.40;;;;;;;3.64;96.24;96909.97;4984562;28;20058;-67
2024/01/01 06:55:03;;;;;;;0.43;0.43;;;;;;;3.96;97.17;96939.47;4984589;28;20124;-67
2024/01/01 06:57:30;;;;;;;0.40;0.40;;;;;;;4.26;96.96;96957.53;5004067;28;20497;-66
2024/01/01 06:59:57;;;;;;;0.50;0.50;;;;;;;4.16;97.52;96940.66;5004420;28;20058;-66
2024/01/01 07:02:27;;;;;;;0.40;0.40;;;;;;;4.69;97.74;96949.78;5003037;28;20068;-66
2024/01/01 07:04:55;;;;;;;0.40;0.40;;;;;;;4.25;97.62;96870.94;5003952;28;20058;-66
2024/01/01 07:07:22;;;;;;;0.50;0.50;;;;;;;4.43;97.15;96850.47;5004030;28;20112;-66
2024/01/01 07:09:48;;;;;;;0.47;0.47;;;;;;;5.18;97.42;96956.31;5004470;28;20050;-66
2024/01/01 07:12:20;;;;;;;0.40;0.40;;;;;;;5.24;97.04;96954.16;5018890;28;20061;-66
2024/01/01 07:14:47;;;;;;;0.50;0.50;;;;;;;4.89;94.34;96974.81;5004215;28;20050;-67
2024/01/01 07:17:14;;;;;;;0.40;0.40;;;;;;;5.05;95.45;96956.59;5003883;28;20057;-66
2024/01/01 07:19:42;;;;;;;0.50;0.50;;;;;;;4.90;94.18;96924.28;5004019;28;20042;-66
2024/01/01 07:22:09;;;;;;;0.50;0.50;;;;;;;5.41;94.25;96953.97;5018416;28;20053;-66
2024/01/01 07:24:37;;;;;;;0.40;0.40;;;;;;;5.56;93.48;96962.38;5003794;28;20135;-66
2024/01/01 07:27:04;;;;;;;0.50;0.50;;;;;;;5.75;93.21;96959.09;5005269;28;20057;-67
2024/01/01 07:29:31;;;;;;;0.50;0.50;;;;;;;5.72;91.95;96948.78;5007665;28;20068;-67
2024/01/01 07:31:58;;;;;;;0.50;0.50;;;;;;;5.93;90.49;96955.00;5005916;28;20056;-67
2024/01/01 07:34:26;;;;;;;0.50;0.50;;;;;;;6.14;90.19;96955.72;5007411;28;20184;-66
2024/01/01 07:36:54;;;;;;;0.50;0.50;;;;;;;6.36;88.50;96947.00;5022762;28;20049;-67
2024/01/01 07:39:23;;;;;;;0.50;0.50;;;;;;;5.94;87.71;96901.66;5022469;28;20127;-66
2024/01/01 07:41:53;;;;;;;0.50;0.50;;;;;;;6.20;86.98;96923.31;5007140;28;20058;-67
2024/01/01 07:44:21;;;;;;;0.50;0.50;;;;;;;6.47;87.36;96948.13;5022170;28;20119;-67
2024/01/01 07:46:48;;;;;;;0.60;0.60;;;;;;;6.52;87.50;96942.38;5007036;28;20691;-68
2024/01/01 07:49:16;;;;;;;0.60;0.60;;;;;;;6.68;87.24;96954.28;5007388;28;20149;-68
2024/01/01 07:51:44;;;;;;;0.52;0.52;;;;;;;6.82;86.40;96949.22;5006748;28;20054;-68
2024/01/01 07:54:11;;;;;;;0.60;0.60;;;;;;;6.98;86.92;96947.31;5022021;28;20062;-68
2024/01/01 07:56:43;;;;;;;0.60;0.60;;;;;;;7.18;85.96;96943.56;4989565;28;20474;-68
2024/01/01 07:59:14;;;;;;;0.60;0.60;;;;;;;7.29;85.11;96921.81;5006902;28;20060;-68
2024/01/01 08:01:42;;;;;;;0.60;0.60;;;;;;;7.55;85.13;96945.00;5006844;28;20093;-68
2024/01/01 08:04:09;;;;;;;0.60;0.60;;;;;;;7.74;84.73;96936.81;5021516;28;20209;-68
2024/01/01 08:06:37;;;;;;;0.60;0.60;;;;;;;7.81;84.47;96935.44;5006937;28;20052;-68
2024/01/01 08:09:04;;;;;;;0.70;0.70;;;;;;;7.98;83.80;96932.31;5006725;28;20460;-68
2024/01/01 08:11:31;;;;;;;0.70;0.70;;;;;;;8.12;83.43;96932.66;5021926;28;20120;-68
2024/01/01 08:14:00;;;;;;;0.70;0.70;;;;;;;8.26;83.26;96930.28;5007143;28;20157;-68
2024/01/01 08:16:33;;;;;;;0.68;0.68;;;;;;;7.78;81.56;96806.56;5006909;28;20053;-68
2024/01/01 08:19:01;;;;;;;0.70;0.70;;;;;;;8.63;81.64;96923.25;4991171;28;20046;-68
2024/01/01 08:21:28;;;;;;;0.70;0.70;;;;;;;8.59;82.32;96922.38;5006652;28;20096;-68
2024/01/01 08:23:55;;;;;;;0.70;0.70;;;;;;;8.29;82.90;96868.84;5005013;28;20065;-68
2024/01/01 08:26:23;;;;;;;0.70;0.70;;;;;;;8.47;83.39;96878.34;5001292;28;20054;-68
2024/01/01 08:28:53;;;;;;;0.70;0.70;;;;;;;8.90;83.00;96922.25;4986981;28;20050;-69
2024/01/01 08:31:20;;;;;;;0.70;0.70;;;;;;;8.63;83.14;96851.47;5001534;28;20054;-69
2024/01/01 08:33:48;;;;;;;0.77;0.77;;;;;;;9.18;83.24;96917.34;4986737;28;20062;-69
2024/01/01 08:36:20;;;;;;;0.80;0.80;;;;;;;9.35;82.19;96914.13;5000973;28;20057;-68
2024/01/01 08:38:47;;;;;;;0.73;0.73;;;;;;;9.53;81.73;96906.94;4986457;28;20046;-68
2024/01/01 08:41:15;;;;;;;0.80;0.80;;;;;;;9.47;81.24;96855.13;4986133;28;20046;-68
2024/01/01 08:43:46;;;;;;;0.80;0.80;;;;;;;9.78;80.64;96868.69;4986784;28;20054;-68
2024/01/01 08:46:14;;;;;;;0.82;0.82;;;;;;;10.24;77.42;96893.19;4986821;28;20105;-68
2024/01/01 08:48:42;;;;;;;0.77;0.77;;;;;;;10.29;77.27;96901.19;4986992;28;20488;-69
2024/01/01 08:51:09;;;;;;;0.88;0.88;;;;;;;10.57;77.03;96892.53;4986846;28;20054;-68
2024/01/01 08:53:36;;;;;;;0.82;0.82;;;;;;;10.73;75.87;96887.63;4986416;28;20089;-69
2024/01/01 08:56:04;;;;;;;0.90;0.90;;;;;;;10.77;75.38;96893.19;4992959;28;20115;-68
2024/01/01 08:58:31;;;;;;;0.90;0.90;;;;;;;10.91;75.14;96876.78;5004386;28;20093;-69
2024/01/01 09:00:59;;;;;;;0.80;0.80;;;;;;;10.99;74.71;96878.44;5004539;28;20057;-68
2024/01/01 09:03:29;;;;;;;0.93;0.93;;;;;;;11.22;74.69;96882.72;5005851;28;20158;-68
2024/01/01 09:05:57;;;;;;;0.82;0.82;;;;;;;11.38;73.21;96874.16;5005959;28;20124;-69
2024/01/01 09:08:25;;;;;;;0.80;0.80;;;;;;;11.44;71.61;96836.59;5006110;28;20689;-68
2024/01/01 09:10:53;;;;;;;0.80;0.80;;;;;;;11.62;71.50;96862.50;5005328;28;20582;-68
2024/01/01 09:13:20;;;;;;;1.00;1.00;;;;;;;11.71;70.88;96854.72;5005481;28;20521;-68
2024/01/01 09:15:48;;;;;;;0.93;0.93;;;;;;;11.80;69.96;96864.31;5004388;28;20058;-69
2024/01/01 09:18:15;;;;;;;1.00;1.00;;;;;;;11.45;69.60;96794.59;5020540;28;20061;-68
2024/01/01 09:20:43;;;;;;;0.90;0.90;;;;;;;11.90;68.90;96851.72;5005187;28;20054;-68
2024/01/01 09:23:11;;;;;;;0.90;0.90;;;;;;;12.06;68.76;96832.84;5005788;28;20401;-68
2024/01/01 09:25:42;;;;;;;0.95;0.95;;;;;;;11.82;69.47;96761.25;5005700;28;20472;-69
2024/01/01 09:28:09;;;;;;;1.00;1.00;;;;;;;12.39;68.05;96824.34;5005722;28;20056;-69
2024/01/01 09:30:37;;;;;;;1.00;1.00;;;;;;;12.36;67.13;96822.31;5003797;28;20050;-70
2024/01/01 09:33:05;;;;;;;0.95;0.95;;;;;;;12.62;67.16;96824.06;5004857;28;20112;-68
2024/01/01 09:35:32;;;;;;;0.90;0.90;;;;;;;12.88;66.78;96824.56;5004941;28;20426;-70
2024/01/01 09:38:01;;;;;;;0.90;0.90;;;;;;;12.93;66.23;96815.88;5005433;28;20053;-68
2024/01/01 09:40:28;;;;;;;1.08;1.08;;;;;;;13.19;65.98;96829.50;5020354;28;20052;-69
2024/01/01 09:42:56;;;;;;;1.08;1.08;;;;;;;13.40;64.85;96824.00;5005844;28;20050;-68
2024/01/01 09:45:26;;;;;;;1.10;1.10;;;;;;;13.49;63.62;96832.78;5005446;28;20133;-69
2024/01/01 09:47:53;;;;;;;1.08;1.08;;;;;;;13.35;63.96;96770.75;5005212;28;20137;-66
2024/01/01 09:50:20;;;;;;;1.15;1.15;;;;;;;13.96;62.95;96814.16;5002534;28;20053;-70
2024/01/01 09:52:56;;;;;;;1.20;1.20;;;;;;;14.05;62.11;96806.19;5004741;28;20610;-69
2024/01/01 09:55:23;;;;;;;1.33;1.33;;;;;;;14.05;61.54;96804.19;5003988;28;20077;-69
2024/01/01 09:57:50;;;;;;;1.20;1.20;;;;;;;14.19;61.48;96808.97;5004424;28;20050;-69
2024/01/01 10:00:23;;;;;;;1.20;1.20;;;;;;;13.93;60.41;96728.59;5004889;28;20136;-69
2024/01/01 10:03:05;;;;;;;1.20;1.20;;;;;;;14.35;60.20;96796.22;5004679;28;20520;-69
2024/01/01 10:05:32;;;;;;;1.40;1.40;;;;;;;14.25;59.96;96746.91;4987492;28;20514;-69
2024/01/01 10:08:14;;;;;;;1.20;1.20;;;;;;;14.49;59.04;96789.84;4985336;28;20046;-69
2024/01/01 10:10:42;;;;;;;1.20;1.20;;;;;;;14.51;58.66;96777.06;4984987;28;20077;-69
2024/01/01 10:13:13;;;;;;;1.20;1.20;;;;;;;14.80;58.03;96777.78;4985407;28;20072;-69
2024/01/01 10:15:43;;;;;;;1.30;1.30;;;;;;;13.20;59.65;96653.09;4984711;28;20061;-69
2024/01/01 10:18:15;;;;;;;1.30;1.30;;;;;;;14.37;58.74;96787.47;4984963;28;20137;-69
2024/01/01 10:20:44;;;;;;;1.20;1.20;;;;;;;14.28;58.60;96707.09;4984790;28;20062;-69
2024/01/01 10:23:25;;;;;;;1.27;1.27;;;;;;;14.78;57.89;96763.44;4984990;28;20497;-69
2024/01/01 10:26:10;;;;;;;1.30;1.30;;;;;;;15.10;58.29;96750.16;4983488;28;20497;-70
2024/01/01 10:28:40;;;;;;;1.20;1.20;;;;;;;15.10;56.70;96719.47;4985223;28;20062;-70
2024/01/01 10:31:12;;;;;;;1.27;1.27;;;;;;;14.69;55.28;96620.91;4985072;28;20062;-69
2024/01/01 10:33:41;;;;;;;1.30;1.30;;;;;;;14.10;55.13;96483.47;4985193;28;20060;-70
2024/01/01 10:36:08;;;;;;;1.30;1.30;;;;;;;15.52;54.78;96741.56;4983391;28;20049;-69
2024/01/01 10:38:38;;;;;;;1.20;1.20;;;;;;;15.46;54.69;96686.56;4985079;28;20137;-69
2024/01/01 10:41:05;;;;;;;1.40;1.40;;;;;;;15.79;53.13;96734.16;4984269;28;20058;-70
2024/01/01 10:43:35;;;;;;;1.30;1.30;;;;;;;15.59;53.89;96685.66;4984613;28;20050;-70
2024/01/01 10:46:04;;;;;;;1.35;1.35;;;;;;;15.91;53.45;96716.91;4984437;28;20054;-70
2024/01/01 10:48:37;;;;;;;1.20;1.20;;;;;;;16.29;53.68;96707.34;4984248;28;20599;-70
2024/01/01 10:51:10;;;;;;;;;;;;;;;16.58;52.70;96708.63;4984515;28;20568;-70
2024/01/01 10:54:02;;;;;;;1.23;1.23;;;;;;;16.19;52.46;96685.88;4984668;28;20273;-70
2024/01/01 10:56:49;;;;;;;1.40;1.40;;;;;;;16.40;52.61;96702.44;4992125;28;20137;-70
2024/01/01 10:59:21;;;;;;;1.58;1.58;;;;;;;16.43;52.40;96678.41;5000516;28;20064;-70
2024/01/01 11:01:54;;;;;;;1.40;1.40;;;;;;;15.82;51.74;96607.63;5005189;28;20133;-70
2024/01/01 11:04:23;;;;;;;1.35;1.35;;;;;;;16.48;51.53;96683.59;4998473;28;20066;-70
2024/01/01 11:06:50;;;;;;;1.30;1.30;;;;;;;15.96;52.66;96688.53;4986938;28;20046;-70
2024/01/01 11:09:21;;;;;;;1.38;1.38;;;;;;;15.81;52.48;96698.22;4988107;28;20137;-70
2024/01/01 11:11:53;;;;;;;1.40;1.40;;;;;;;15.96;52.69;96677.34;4987880;28;20045;-70
2024/01/01 11:14:44;;;;;;;1.38;1.38;;;;;;;15.63;52.69;96685.63;4988530;28;20057;-70
2024/01/01 11:17:12;;;;;;;1.35;1.35;;;;;;;15.92;53.12;96676.56;4987958;28;20521;-69
2024/01/01 11:19:44;;;;;;;1.50;1.50;;;;;;;16.26;52.72;96680.22;4988239;28;20050;-69
2024/01/01 11:22:33;;;;;;;1.50;1.50;;;;;;;16.43;51.99;96668.03;4988065;28;20046;-70
2024/01/01 11:25:00;;;;;;;1.40;1.40;;;;;;;16.42;51.60;96660.84;4988317;28;20061;-70
2024/01/01 11:27:32;;;;;;;1.40;1.40;;;;;;;16.55;51.92;96661.91;4986301;28;20129;-69
2024/01/01 11:30:03;;;;;;;1.48;1.48;;;;;;;15.98;51.48;96591.09;4986683;28;20492;-69
2024/01/01 11:32:31;;;;;;;1.42;1.42;;;;;;;15.91;51.10;96610.75;5002547;28;20058;-70
2024/01/01 11:35:12;;;;;;;1.48;1.48;;;;;;;16.22;51.38;96654.31;4986331;28;20165;-70
2024/01/01 11:37:44;;;;;;;1.20;1.20;;;;;;;15.88;52.12;96658.25;4988141;28;20057;-69
2024/01/01 11:40:12;;;;;;;1.40;1.40;;;;;;;15.75;51.00;96652.41;4987813;28;20092;-69
2024/01/01 11:42:40;;;;;;;1.35;1.35;;;;;;;15.44;51.72;96650.69;4988277;28;20054;-70
2024/01/01 11:45:11;;;;;;;1.40;1.40;;;;;;;15.73;51.35;96649.22;4988126;28;20107;-70